Time;durP1;ratioP1;P1;durP2;ratioP2;P2;SDS_P1;SDS_P2;PMS_P1;PMS_P2;Temp;Humidity;BMP_temperature;BMP_pressure;BME280_temperature;BME280_humidity;BME280_pressure;Samples;Min_cycle;Max_cycle;Signal;HPM_P1;HPM_P2
2022/04/11 00:00:36;;;;;;;4.88;1.70;;;10.60;40.70;;;;;;5017972;28;20037;-82
2022/04/11 00:03:02;;;;;;;3.10;1.48;;;10.60;40.80;;;;;;5000989;28;20087;-82
2022/04/11 00:05:28;;;;;;;3.08;1.40;;;10.60;40.80;;;;;;5014123;28;20344;-83
2022/04/11 00:07:54;;;;;;;2.85;2.28;;;10.60;40.90;;;;;;5009813;28;20017;-83
2022/04/11 00:10:20;;;;;;;3.10;2.03;;;10.60;40.90;;;;;;5020224;28;20033;-82
2022/04/11 00:12:46;;;;;;;4.28;1.67;;;10.60;41.00;;;;;;5023947;28;20057;-84
2022/04/11 00:15:12;;;;;;;2.35;1.40;;;10.60;41.00;;;;;;5013451;28;20033;-83
2022/04/11 00:17:38;;;;;;;3.15;1.73;;;10.60;41.10;;;;;;5014086;28;20607;-82
2022/04/11 00:20:05;;;;;;;3.72;1.77;;;10.50;41.00;;;;;;5014519;28;20025;-83
2022/04/11 00:22:38;;;;;;;5.10;2.47;;;10.50;41.10;;;;;;5019520;28;20400;-82
2022/04/11 00:25:04;;;;;;;3.13;1.60;;;10.50;41.10;;;;;;5017205;28;20116;-82
2022/04/11 00:27:30;;;;;;;2.95;2.17;;;10.50;41.20;;;;;;5005895;28;20049;-82
2022/04/11 00:29:56;;;;;;;3.33;1.77;;;10.50;41.30;;;;;;5040162;28;20722;-83
2022/04/11 00:32:22;;;;;;;3.83;1.92;;;10.40;41.10;;;;;;5019540;28;20033;-81
2022/04/11 00:34:49;;;;;;;4.47;1.70;;;10.40;41.10;;;;;;5026103;28;20045;-83
2022/04/11 00:37:16;;;;;;;4.30;2.00;;;10.40;41.20;;;;;;5024051;28;20041;-84
2022/04/11 00:39:42;;;;;;;3.25;1.60;;;10.40;41.80;;;;;;5032749;28;20535;-83
2022/04/11 00:42:14;;;;;;;4.93;1.95;;;10.40;41.20;;;;;;5027809;28;20120;-83
2022/04/11 00:44:40;;;;;;;2.50;1.40;;;10.40;41.30;;;;;;5026886;28;20475;-84
2022/04/11 00:47:06;;;;;;;4.93;1.80;;;10.40;41.30;;;;;;5019523;28;20543;-84
2022/04/11 00:49:32;;;;;;;4.60;2.20;;;10.40;41.40;;;;;;5026338;28;20544;-83
2022/04/11 00:51:59;;;;;;;3.10;1.83;;;10.40;41.40;;;;;;5026943;28;20017;-81
2022/04/11 00:54:27;;;;;;;3.25;1.88;;;10.40;41.50;;;;;;5011280;28;20052;-81
2022/04/11 00:56:55;;;;;;;6.13;1.88;;;10.40;41.50;;;;;;5022793;28;20052;-80
2022/04/11 00:59:21;;;;;;;5.38;2.10;;;10.40;41.60;;;;;;5027373;28;20068;-81
2022/04/11 01:01:48;;;;;;;3.05;1.70;;;10.30;41.40;;;;;;5016707;28;20614;-80
2022/04/11 01:04:27;;;;;;;3.03;1.80;;;10.30;41.50;;;;;;5007172;28;20089;-82
2022/04/11 01:06:56;;;;;;;3.45;1.75;;;10.30;41.50;;;;;;5021732;28;20377;-80
2022/04/11 01:09:26;;;;;;;3.25;1.80;;;10.30;41.60;;;;;;5026707;28;20112;-81
2022/04/11 01:11:53;;;;;;;3.72;1.90;;;10.30;41.70;;;;;;4995774;28;20148;-81
2022/04/11 01:14:20;;;;;;;4.80;2.00;;;10.30;41.80;;;;;;5019782;28;20699;-80
2022/04/11 01:16:50;;;;;;;4.07;1.98;;;10.20;41.70;;;;;;5025456;28;20773;-81
2022/04/11 01:19:17;;;;;;;2.63;1.60;;;10.20;41.70;;;;;;5026440;28;20232;-81
2022/04/11 01:21:47;;;;;;;5.38;2.25;;;10.20;41.80;;;;;;5026099;28;20476;-81
2022/04/11 01:24:13;;;;;;;3.65;1.67;;;10.20;41.90;;;;;;5026885;28;20059;-82
2022/04/11 01:26:40;;;;;;;3.25;1.90;;;10.20;42.00;;;;;;5025377;28;20029;-82
2022/04/11 01:29:09;;;;;;;4.45;1.92;;;10.10;41.80;;;;;;5025097;28;20061;-81
2022/04/11 01:31:35;;;;;;;4.45;2.10;;;10.10;41.90;;;;;;5021471;28;20073;-82
2022/04/11 01:34:01;;;;;;;3.90;2.35;;;10.10;41.90;;;;;;5005151;28;20112;-82
2022/04/11 01:36:27;;;;;;;3.58;2.08;;;10.10;42.00;;;;;;5024749;28;20397;-83
2022/04/11 01:38:53;;;;;;;3.78;2.13;;;10.10;42.10;;;;;;5024305;28;20033;-82
2022/04/11 01:41:22;;;;;;;3.95;2.28;;;10.10;42.10;;;;;;5021273;28;20758;-82
2022/04/11 01:43:48;;;;;;;10.98;2.85;;;10.10;42.20;;;;;;5024109;28;20021;-82
2022/04/11 01:46:14;;;;;;;4.53;2.25;;;10.10;42.30;;;;;;5021791;28;20046;-83
2022/04/11 01:48:46;;;;;;;3.60;1.80;;;10.00;42.10;;;;;;5021922;28;20034;-83
2022/04/11 01:51:13;;;;;;;4.00;2.35;;;10.00;42.20;;;;;;5028299;28;20041;-82
2022/04/11 01:53:40;;;;;;;5.65;2.00;;;10.00;42.20;;;;;;5023339;28;20164;-82
2022/04/11 01:56:06;;;;;;;6.30;2.05;;;10.00;42.30;;;;;;5028015;28;20138;-82
2022/04/11 01:58:33;;;;;;;4.95;2.63;;;10.00;42.40;;;;;;5028004;28;20044;-82
2022/04/11 02:00:59;;;;;;;2.92;2.13;;;10.00;42.50;;;;;;5027562;28;20033;-82
2022/04/11 02:03:26;;;;;;;2.67;2.05;;;10.00;42.50;;;;;;5020236;28;20080;-81
2022/04/11 02:05:53;;;;;;;3.63;2.67;;;9.90;42.40;;;;;;5027300;28;20134;-81
2022/04/11 02:08:19;;;;;;;4.57;2.33;;;9.90;42.50;;;;;;5026966;28;20438;-82
2022/04/11 02:10:46;;;;;;;3.40;2.30;;;10.00;42.80;;;;;;5017292;28;20044;-82
2022/04/11 02:13:12;;;;;;;4.03;2.28;;;9.90;42.60;;;;;;5022496;28;20036;-83
2022/04/11 02:15:39;;;;;;;4.90;2.35;;;9.90;42.70;;;;;;5024342;28;20042;-83
2022/04/11 02:18:05;;;;;;;4.13;2.65;;;9.90;42.70;;;;;;5024481;28;20107;-82
2022/04/11 02:20:31;;;;;;;4.00;2.47;;;9.90;42.80;;;;;;5026626;28;20067;-83
2022/04/11 02:22:59;;;;;;;5.03;2.65;;;9.90;42.90;;;;;;5020389;28;20041;-82
2022/04/11 02:25:31;;;;;;;3.92;2.60;;;9.90;43.00;;;;;;5027597;28;20033;-83
2022/04/11 02:27:59;;;;;;;7.70;2.70;;;9.90;43.00;;;;;;5026387;28;20033;-81
2022/04/11 02:30:26;;;;;;;4.20;2.72;;;9.90;43.00;;;;;;5027732;28;20029;-81
2022/04/11 02:32:53;;;;;;;5.68;2.80;;;9.80;42.90;;;;;;5022585;28;20120;-81
2022/04/11 02:35:20;;;;;;;6.20;2.55;;;9.90;43.10;;;;;;5024750;28;20034;-82
2022/04/11 02:37:47;;;;;;;2.38;2.08;;;9.90;43.20;;;;;;5023380;28;20057;-81
2022/04/11 02:40:14;;;;;;;6.75;2.88;;;9.80;43.00;;;;;;5021631;28;20033;-82
2022/04/11 02:42:52;;;;;;;4.93;2.45;;;9.90;43.20;;;;;;5023727;28;20437;-81
2022/04/11 02:45:19;;;;;;;6.03;3.13;;;9.90;43.30;;;;;;5037763;28;20132;-81
2022/04/11 02:47:45;;;;;;;5.65;2.67;;;9.90;43.40;;;;;;5026206;28;20045;-83
2022/04/11 02:50:13;;;;;;;4.65;2.80;;;9.90;43.40;;;;;;5027452;28;20361;-82
2022/04/11 02:52:54;;;;;;;6.28;3.08;;;9.80;43.20;;;;;;5026563;28;20368;-82
2022/04/11 02:55:21;;;;;;;3.95;2.80;;;9.80;43.30;;;;;;5006599;28;20222;-82
2022/04/11 02:57:48;;;;;;;4.88;3.20;;;9.80;43.40;;;;;;5017000;28;20025;-82
2022/04/11 03:00:14;;;;;;;3.83;2.80;;;9.80;43.40;;;;;;5010851;28;20095;-82
2022/04/11 03:02:50;;;;;;;3.65;3.28;;;9.80;43.50;;;;;;5024776;28;20114;-82
2022/04/11 03:05:17;;;;;;;5.13;3.10;;;9.80;43.50;;;;;;5010934;28;20168;-82
2022/04/11 03:07:44;;;;;;;6.13;2.80;;;9.80;43.60;;;;;;5025813;28;20048;-82
2022/04/11 03:10:13;;;;;;;7.32;2.85;;;9.80;43.70;;;;;;5026737;28;20032;-83
2022/04/11 03:12:39;;;;;;;4.90;2.83;;;9.70;43.50;;;;;;5014844;28;20018;-84
2022/04/11 03:15:08;;;;;;;6.03;2.85;;;9.70;44.20;;;;;;5025993;28;20091;-85
2022/04/11 03:17:34;;;;;;;6.30;3.25;;;9.70;43.70;;;;;;5025878;28;20095;-85
2022/04/11 03:20:00;;;;;;;5.22;3.35;;;9.70;43.80;;;;;;5028001;28;20026;-84
2022/04/11 03:22:26;;;;;;;7.00;3.35;;;9.70;43.80;;;;;;5025540;28;20029;-84
2022/04/11 03:24:59;;;;;;;6.47;3.25;;;9.70;43.90;;;;;;5025852;28;20551;-85
2022/04/11 03:27:25;;;;;;;7.72;3.17;;;9.70;43.90;;;;;;5026495;28;20033;-84
2022/04/11 03:29:52;;;;;;;7.68;3.75;;;9.70;43.90;;;;;;5026653;28;20099;-83
2022/04/11 03:32:18;;;;;;;4.40;2.85;;;9.70;44.00;;;;;;5025419;28;20116;-83
2022/04/11 03:34:44;;;;;;;6.18;3.28;;;9.70;44.00;;;;;;5008457;28;20061;-83
2022/04/11 03:37:10;;;;;;;5.90;3.47;;;9.70;44.10;;;;;;5025411;28;20041;-81
2022/04/11 03:39:41;;;;;;;6.28;3.53;;;9.70;44.10;;;;;;5028242;28;20026;-81
2022/04/11 03:42:07;;;;;;;4.63;3.58;;;9.70;44.10;;;;;;5022390;28;20369;-82
2022/04/11 03:44:35;;;;;;;8.23;3.33;;;9.70;44.20;;;;;;5025469;28;20036;-81
2022/04/11 03:47:05;;;;;;;5.30;3.50;;;9.70;44.20;;;;;;5013030;28;20053;-81
2022/04/11 03:49:34;;;;;;;4.72;3.10;;;9.60;44.10;;;;;;5025844;28;20025;-81
2022/04/11 03:52:13;;;;;;;3.35;3.03;;;9.60;44.10;;;;;;5026422;28;20034;-81
2022/04/11 03:54:39;;;;;;;7.75;3.95;;;9.60;44.20;;;;;;5024733;28;20029;-81
2022/04/11 03:57:05;;;;;;;6.07;3.45;;;9.60;44.20;;;;;;5020571;28;20060;-82
2022/04/11 03:59:31;;;;;;;7.18;3.50;;;9.60;44.30;;;;;;5013898;28;20580;-81
2022/04/11 04:01:57;;;;;;;6.32;3.63;;;9.60;44.30;;;;;;5022884;28;20033;-85
2022/04/11 04:04:23;;;;;;;5.10;3.10;;;9.60;44.40;;;;;;5025912;28;20508;-82
2022/04/11 04:06:49;;;;;;;3.92;3.22;;;9.60;44.40;;;;;;5024670;28;20045;-80
2022/04/11 04:09:17;;;;;;;8.38;3.80;;;9.60;44.60;;;;;;5026429;28;20037;-80
2022/04/11 04:11:43;;;;;;;6.68;3.47;;;9.60;44.60;;;;;;5030684;28;20026;-81
2022/04/11 04:14:23;;;;;;;5.35;3.90;;;9.50;44.40;;;;;;5011064;28;20524;-81
2022/04/11 04:16:52;;;;;;;4.10;3.38;;;9.50;44.50;;;;;;5023038;28;20092;-81
2022/04/11 04:19:26;;;;;;;8.15;4.07;;;9.50;44.60;;;;;;5022984;28;20109;-81
2022/04/11 04:21:52;;;;;;;7.38;4.00;;;9.50;44.60;;;;;;5028056;28;20033;-81
2022/04/11 04:24:22;;;;;;;7.80;4.57;;;9.50;44.60;;;;;;5028928;28;20025;-82
2022/04/11 04:26:50;;;;;;;5.28;3.45;;;9.50;44.70;;;;;;5030108;28;20041;-83
2022/04/11 04:29:18;;;;;;;6.97;3.83;;;9.50;44.80;;;;;;5033651;28;20029;-83
2022/04/11 04:31:49;;;;;;;9.52;4.07;;;9.50;44.80;;;;;;5029724;28;20068;-82
2022/04/11 04:34:16;;;;;;;5.32;3.60;;;9.50;44.80;;;;;;5030057;28;20041;-82
2022/04/11 04:39:37;;;;;;;6.78;3.67;;;9.40;44.80;;;;;;4924814;23;20064;-81
2022/04/11 04:42:05;;;;;;;6.78;3.83;;;9.40;44.70;;;;;;4928929;29;20119;-83
2022/04/11 04:44:32;;;;;;;8.60;4.07;;;9.40;44.80;;;;;;4933104;29;20039;-82
2022/04/11 04:47:00;;;;;;;5.57;3.55;;;9.50;45.00;;;;;;4931066;29;20170;-83
2022/04/11 04:49:33;;;;;;;5.68;3.05;;;9.40;44.90;;;;;;4938069;29;20070;-81
2022/04/11 04:52:04;;;;;;;9.00;3.95;;;9.50;45.10;;;;;;4932565;29;21186;-83
2022/04/11 04:54:32;;;;;;;9.18;3.92;;;9.40;45.00;;;;;;4930398;29;20062;-82
2022/04/11 04:56:59;;;;;;;5.90;3.80;;;9.40;45.00;;;;;;4924191;29;20032;-82
2022/04/11 04:59:28;;;;;;;6.55;3.90;;;9.40;45.10;;;;;;4929348;29;20133;-83
2022/04/11 05:01:59;;;;;;;5.68;3.70;;;9.40;45.20;;;;;;4911285;29;20085;-84
2022/04/11 05:04:26;;;;;;;6.68;4.68;;;9.40;45.20;;;;;;4928868;29;20055;-83
2022/04/11 05:06:53;;;;;;;5.15;3.90;;;9.40;45.30;;;;;;4920135;29;20035;-83
2022/04/11 05:09:19;;;;;;;5.00;3.20;;;9.40;45.30;;;;;;4922125;29;20039;-83
2022/04/11 05:11:47;;;;;;;6.05;3.63;;;9.40;45.40;;;;;;4923475;29;20063;-83
2022/04/11 05:14:13;;;;;;;6.50;3.75;;;9.40;45.50;;;;;;4909901;29;20078;-82
2022/04/11 05:16:40;;;;;;;7.13;3.53;;;9.40;45.50;;;;;;4935999;28;20044;-82
2022/04/11 05:19:11;;;;;;;5.32;3.10;;;9.30;45.40;;;;;;4923566;29;20461;-82
2022/04/11 05:21:37;;;;;;;5.20;3.42;;;9.30;45.50;;;;;;4924464;29;20063;-82
2022/04/11 05:24:04;;;;;;;4.47;2.97;;;9.40;45.70;;;;;;4926693;29;20024;-82
2022/04/11 05:26:30;;;;;;;6.50;3.85;;;9.40;45.80;;;;;;4928254;29;20043;-82
2022/04/11 05:28:56;;;;;;;4.15;3.45;;;9.40;45.90;;;;;;4924963;29;20028;-82
2022/04/11 05:31:23;;;;;;;6.53;3.40;;;9.40;45.90;;;;;;4922893;29;20036;-82
2022/04/11 05:33:52;;;;;;;6.55;3.28;;;9.40;45.90;;;;;;4926198;29;20036;-84
2022/04/11 05:36:19;;;;;;;4.78;3.05;;;9.40;45.90;;;;;;4937936;29;20043;-83
2022/04/11 05:38:46;;;;;;;5.00;2.70;;;9.40;46.00;;;;;;4909318;29;20058;-86
2022/04/11 05:41:14;;;;;;;4.82;3.67;;;9.40;46.10;;;;;;4921432;29;20414;-81
2022/04/11 05:43:52;;;;;;;5.07;2.83;;;9.40;46.10;;;;;;4935539;28;20043;-78
2022/04/11 05:46:22;;;;;;;8.95;4.55;;;9.50;46.30;;;;;;4919932;29;20074;-79
2022/04/11 05:48:57;;;;;;;13.38;4.47;;;9.40;46.10;;;;;;4920547;29;20047;-77
2022/04/11 05:51:25;;;;;;;9.82;4.68;;;9.40;46.10;;;;;;4920393;29;20070;-76
2022/04/11 05:53:51;;;;;;;4.72;3.75;;;9.40;46.10;;;;;;4915424;29;20126;-77
2022/04/11 05:56:17;;;;;;;7.18;3.92;;;9.40;46.20;;;;;;4926430;29;20221;-77
2022/04/11 05:58:44;;;;;;;7.18;4.07;;;9.40;46.50;;;;;;4919065;29;20094;-77
2022/04/11 06:01:11;;;;;;;6.40;3.88;;;9.40;46.70;;;;;;4916120;29;20779;-78
2022/04/11 06:03:38;;;;;;;5.15;3.88;;;9.50;46.90;;;;;;4910342;29;20435;-78
2022/04/11 06:06:05;;;;;;;5.85;3.70;;;9.50;46.90;;;;;;4909760;29;20088;-78
2022/04/11 06:08:31;;;;;;;6.95;3.63;;;9.60;47.10;;;;;;4919577;29;20518;-78
2022/04/11 06:10:58;;;;;;;7.25;3.50;;;9.70;47.20;;;;;;4923365;29;20091;-78
2022/04/11 06:13:25;;;;;;;6.05;3.40;;;9.70;47.80;;;;;;4915552;29;20039;-78
2022/04/11 06:15:55;;;;;;;6.47;3.30;;;9.80;47.40;;;;;;4927828;29;20554;-80
2022/04/11 06:18:21;;;;;;;5.15;3.03;;;9.90;47.40;;;;;;4924503;29;20110;-78
2022/04/11 06:20:49;;;;;;;3.92;2.92;;;10.00;47.50;;;;;;4924128;29;20483;-78
2022/04/11 06:23:15;;;;;;;5.88;2.90;;;10.20;47.90;;;;;;4922108;29;20176;-77
2022/04/11 06:25:42;;;;;;;3.97;2.55;;;10.30;48.40;;;;;;4922234;29;20035;-76
2022/04/11 06:28:08;;;;;;;6.97;4.07;;;10.40;48.80;;;;;;4929577;29;20038;-77
2022/04/11 06:30:36;;;;;;;5.80;3.53;;;10.70;49.20;;;;;;4914431;29;20040;-81
2022/04/11 06:33:02;;;;;;;4.82;3.30;;;10.80;49.20;;;;;;4938845;29;20035;-78
2022/04/11 06:35:28;;;;;;;5.95;3.92;;;10.90;49.10;;;;;;4941655;28;20047;-78
2022/04/11 06:37:54;;;;;;;3.95;2.88;;;11.10;49.30;;;;;;4916359;29;20031;-76
2022/04/11 06:40:21;;;;;;;4.85;3.17;;;11.20;49.30;;;;;;4928326;29;20047;-76
2022/04/11 06:42:48;;;;;;;4.88;2.67;;;11.40;49.50;;;;;;4931753;29;20035;-78
2022/04/11 06:45:50;;;;;;;5.50;2.50;;;11.60;49.50;;;;;;4932908;29;20040;-77
2022/04/11 06:48:19;;;;;;;;;;;11.80;49.30;;;;;;4933958;29;20036;-87
2022/04/11 06:50:46;;;;;;;2.97;2.38;;;12.00;49.20;;;;;;4944005;29;19922;-79
2022/04/11 06:53:15;;;;;;;3.97;2.38;;;12.10;49.00;;;;;;4938419;29;20055;-81
2022/04/11 06:55:40;;;;;;;5.18;3.20;;;12.10;48.90;;;;;;4924957;29;20062;-80
2022/04/11 06:58:06;;;;;;;5.15;2.75;;;12.20;49.00;;;;;;4928153;29;20280;-82
2022/04/11 07:00:32;;;;;;;5.15;3.65;;;12.30;49.20;;;;;;4929029;29;20032;-80
2022/04/11 07:02:58;;;;;;;4.95;2.72;;;12.40;49.20;;;;;;4927684;29;20042;-79
2022/04/11 07:05:24;;;;;;;3.75;2.72;;;12.50;49.00;;;;;;4928376;29;20049;-81
2022/04/11 07:07:50;;;;;;;5.00;2.80;;;12.60;49.00;;;;;;4930581;29;20035;-80
2022/04/11 07:10:16;;;;;;;5.65;3.20;;;12.70;49.10;;;;;;4932078;29;20091;-80
2022/04/11 07:12:42;;;;;;;4.80;2.65;;;12.80;48.90;;;;;;4927091;29;20055;-80
2022/04/11 07:15:09;;;;;;;4.05;2.65;;;12.90;48.80;;;;;;4927982;29;20043;-80
2022/04/11 07:17:35;;;;;;;4.03;2.67;;;13.00;48.80;;;;;;4926210;29;20038;-81
2022/04/11 07:20:02;;;;;;;3.65;2.78;;;13.10;48.80;;;;;;4925911;29;20034;-80
2022/04/11 07:22:28;;;;;;;4.25;2.75;;;13.20;48.80;;;;;;4928391;29;20026;-81
2022/04/11 07:24:54;;;;;;;3.17;2.20;;;13.20;48.70;;;;;;4919624;29;20055;-81
2022/04/11 07:27:20;;;;;;;4.68;2.75;;;13.30;48.70;;;;;;4925500;29;20047;-82
2022/04/11 07:29:46;;;;;;;4.25;2.47;;;13.40;48.80;;;;;;4926664;29;20459;-82
2022/04/11 07:32:11;;;;;;;4.07;2.55;;;13.40;48.50;;;;;;4940352;28;20495;-83
2022/04/11 07:34:37;;;;;;;6.47;3.25;;;13.50;48.50;;;;;;4925236;29;20031;-82
2022/04/11 07:37:05;;;;;;;3.88;3.13;;;13.60;48.50;;;;;;4923770;29;20111;-84
2022/04/11 07:39:31;;;;;;;4.47;2.55;;;13.60;48.30;;;;;;4924202;29;20522;-82
2022/04/11 07:41:57;;;;;;;7.00;2.65;;;13.70;48.30;;;;;;4923568;29;20059;-83
2022/04/11 07:44:23;;;;;;;3.08;2.58;;;13.70;48.20;;;;;;4925105;29;20054;-84
2022/04/11 07:46:49;;;;;;;4.78;2.38;;;13.70;48.00;;;;;;4922814;29;20040;-81
2022/04/11 07:49:15;;;;;;;3.35;2.08;;;13.70;47.90;;;;;;4920402;29;20035;-80
2022/04/11 07:51:41;;;;;;;3.28;2.53;;;13.80;48.10;;;;;;4925412;29;20487;-80
2022/04/11 07:54:09;;;;;;;4.57;2.83;;;13.80;48.00;;;;;;4925393;29;20602;-80
2022/04/11 07:56:35;;;;;;;4.43;2.55;;;13.80;48.00;;;;;;4924672;29;20039;-81
2022/04/11 07:59:01;;;;;;;2.53;2.15;;;13.80;47.80;;;;;;4924350;29;20476;-81
2022/04/11 08:01:28;;;;;;;4.35;2.35;;;13.80;47.70;;;;;;4924665;29;20036;-81
2022/04/11 08:03:54;;;;;;;4.38;2.70;;;13.90;47.80;;;;;;4924922;29;20114;-85
2022/04/11 08:06:20;;;;;;;6.45;2.47;;;13.90;47.70;;;;;;4916831;29;20032;-78
2022/04/11 08:08:47;;;;;;;6.30;2.85;;;13.90;47.60;;;;;;4925702;29;20032;-80
2022/04/11 08:11:17;;;;;;;5.15;2.45;;;13.90;47.60;;;;;;4923228;29;20161;-79
2022/04/11 08:13:44;;;;;;;3.10;2.20;;;14.00;47.70;;;;;;4925435;29;20063;-78
2022/04/11 08:16:10;;;;;;;4.25;2.25;;;14.00;47.60;;;;;;4925084;29;20514;-80
2022/04/11 08:18:37;;;;;;;2.75;2.33;;;14.10;47.70;;;;;;4926025;29;20032;-81
2022/04/11 08:21:03;;;;;;;3.75;2.33;;;14.10;47.60;;;;;;4925242;29;20031;-84
2022/04/11 08:23:29;;;;;;;4.78;2.22;;;14.10;47.40;;;;;;4924082;29;20490;-81
2022/04/11 08:25:56;;;;;;;7.32;2.55;;;14.20;47.50;;;;;;4921589;29;20062;-81
2022/04/11 08:28:22;;;;;;;5.10;2.42;;;14.20;47.40;;;;;;4917267;29;20196;-81
2022/04/11 08:30:49;;;;;;;4.30;2.50;;;14.20;47.20;;;;;;4921527;29;20488;-80
2022/04/11 08:33:15;;;;;;;5.63;2.53;;;14.40;47.40;;;;;;4916531;29;20508;-81
2022/04/11 08:35:42;;;;;;;2.95;2.50;;;14.40;47.20;;;;;;4933627;29;20107;-80
2022/04/11 08:38:08;;;;;;;3.85;3.25;;;14.50;47.20;;;;;;4918359;29;20040;-80
2022/04/11 08:40:35;;;;;;;3.80;1.80;;;14.60;47.20;;;;;;4923946;29;20619;-81
2022/04/11 08:43:02;;;;;;;3.75;2.42;;;14.70;47.10;;;;;;4921451;29;20027;-81
2022/04/11 08:45:29;;;;;;;2.67;2.00;;;14.80;47.10;;;;;;4923294;29;20136;-82
2022/04/11 08:47:57;;;;;;;3.17;2.28;;;14.90;47.00;;;;;;4925202;29;20722;-84
2022/04/11 08:50:25;;;;;;;5.47;2.00;;;15.00;46.90;;;;;;4922771;29;20501;-82
2022/04/11 08:52:52;;;;;;;4.22;2.28;;;15.10;46.90;;;;;;4925355;29;20066;-83
2022/04/11 08:55:18;;;;;;;2.67;1.70;;;15.20;46.80;;;;;;4920022;29;20043;-83
2022/04/11 08:57:44;;;;;;;5.30;1.98;;;15.30;46.80;;;;;;4928519;29;20134;-82
2022/04/11 09:00:13;;;;;;;3.45;2.10;;;15.40;46.80;;;;;;4927171;29;20039;-81
2022/04/11 09:02:43;;;;;;;4.72;2.10;;;15.50;46.80;;;;;;4926736;29;20124;-81
2022/04/11 09:05:11;;;;;;;3.53;2.08;;;15.60;46.80;;;;;;4928972;29;20395;-81
2022/04/11 09:07:54;;;;;;;3.70;2.00;;;15.70;46.70;;;;;;4928310;29;20044;-81
2022/04/11 09:10:20;;;;;;;3.45;2.20;;;15.80;46.80;;;;;;4917802;29;20255;-81
2022/04/11 09:12:51;;;;;;;4.15;1.90;;;16.00;46.80;;;;;;4929232;29;20040;-82
2022/04/11 09:15:18;;;;;;;2.90;2.00;;;16.10;46.70;;;;;;4926768;29;20127;-82
2022/04/11 09:17:45;;;;;;;3.20;1.77;;;16.20;46.60;;;;;;4926361;29;20124;-82
2022/04/11 09:20:14;;;;;;;4.30;1.75;;;16.40;46.70;;;;;;4924228;29;20411;-81
2022/04/11 09:22:42;;;;;;;3.17;2.00;;;16.50;46.70;;;;;;4940738;28;20038;-80
2022/04/11 09:25:10;;;;;;;3.55;1.65;;;16.60;46.50;;;;;;4926715;29;20043;-80
2022/04/11 09:27:36;;;;;;;3.42;1.52;;;16.70;46.40;;;;;;4931226;29;20031;-84
2022/04/11 09:30:18;;;;;;;3.42;1.63;;;16.80;46.40;;;;;;4934019;28;20447;-80
2022/04/11 09:32:56;;;;;;;3.83;1.92;;;17.00;46.50;;;;;;4925574;29;20036;-82
2022/04/11 09:35:25;;;;;;;3.20;1.40;;;17.20;46.60;;;;;;4926022;29;20561;-80
2022/04/11 09:38:15;;;;;;;3.95;1.70;;;17.30;46.60;;;;;;4927811;29;20035;-79
2022/04/11 09:40:51;;;;;;;3.33;1.60;;;17.50;46.50;;;;;;4929840;29;20170;-82
2022/04/11 09:43:24;;;;;;;3.55;1.40;;;17.70;46.70;;;;;;4923185;29;20039;-80
2022/04/11 09:45:54;;;;;;;1.75;1.60;;;17.90;47.20;;;;;;4927810;29;20526;-79
2022/04/11 09:48:24;;;;;;;3.03;1.40;;;18.10;46.70;;;;;;4927079;29;20083;-80
2022/04/11 09:50:52;;;;;;;2.47;1.45;;;18.30;46.70;;;;;;4919055;29;20040;-79
2022/04/11 09:53:38;;;;;;;2.55;1.40;;;18.40;46.50;;;;;;4927206;29;20578;-80
2022/04/11 09:56:06;;;;;;;2.33;1.60;;;18.60;46.40;;;;;;4924433;29;20126;-80
2022/04/11 09:58:40;;;;;;;2.72;1.30;;;18.70;46.40;;;;;;4925197;29;20157;-80
2022/04/11 10:01:07;;;;;;;3.60;1.50;;;18.90;46.40;;;;;;4926871;29;20212;-81
2022/04/11 10:03:33;;;;;;;2.70;1.48;;;19.10;46.60;;;;;;4926570;29;20071;-81
2022/04/11 10:05:59;;;;;;;2.90;1.02;;;19.30;46.70;;;;;;4928677;29;20035;-80
2022/04/11 10:08:27;;;;;;;2.75;1.40;;;19.40;46.40;;;;;;4927885;29;20168;-82
2022/04/11 10:10:55;;;;;;;3.13;1.40;;;19.60;46.50;;;;;;4927610;29;20051;-80
2022/04/11 10:13:21;;;;;;;3.10;1.60;;;19.70;46.40;;;;;;4923270;29;20027;-80
2022/04/11 10:15:50;;;;;;;1.88;1.60;;;19.90;46.50;;;;;;4924675;29;20028;-80
2022/04/11 10:18:24;;;;;;;1.40;1.30;;;19.90;46.30;;;;;;4926612;29;20032;-81
2022/04/11 10:20:55;;;;;;;2.05;1.42;;;20.00;46.20;;;;;;4927035;29;20134;-80
2022/04/11 10:23:51;;;;;;;2.85;1.25;;;20.10;46.30;;;;;;4935259;28;20056;-80
2022/04/11 10:26:18;;;;;;;3.33;1.20;;;20.20;46.20;;;;;;4941953;28;20032;-78
2022/04/11 10:28:53;;;;;;;3.67;1.63;;;20.20;46.10;;;;;;4928101;29;20046;-81
2022/04/11 10:31:19;;;;;;;3.65;1.23;;;20.30;45.80;;;;;;4917125;29;20110;-79
2022/04/11 10:33:51;;;;;;;2.85;1.80;;;20.30;45.80;;;;;;4910893;29;20539;-80
2022/04/11 10:36:35;;;;;;;6.10;1.65;;;20.40;45.90;;;;;;4929076;29;20067;-78
2022/04/11 10:39:13;;;;;;;1.88;1.17;;;20.50;45.50;;;;;;4926145;29;20054;-79
2022/04/11 10:41:57;;;;;;;2.20;1.40;;;20.60;45.60;;;;;;4945209;29;20023;-79
2022/04/11 10:45:03;;;;;;;2.22;1.42;;;20.80;45.70;;;;;;4931831;29;20087;-80
2022/04/11 10:47:33;;;;;;;2.33;1.42;;;20.90;45.70;;;;;;4943710;29;20035;-79
2022/04/11 10:50:01;;;;;;;3.78;1.83;;;21.00;45.90;;;;;;4946527;29;20039;-79
2022/04/11 10:52:35;;;;;;;3.38;1.63;;;21.00;45.80;;;;;;4926051;29;20023;-88
2022/04/11 10:55:17;;;;;;;2.33;1.35;;;21.00;45.60;;;;;;4938604;29;20024;-80
2022/04/11 10:57:46;;;;;;;2.72;1.58;;;21.00;45.50;;;;;;4932504;29;20110;-79
2022/04/11 11:00:20;;;;;;;2.85;1.35;;;21.10;45.80;;;;;;4927269;29;20032;-82
2022/04/11 11:02:50;;;;;;;2.63;1.40;;;21.20;45.80;;;;;;4945400;29;20082;-81
2022/04/11 11:05:29;;;;;;;6.00;1.77;;;21.30;45.90;;;;;;4945988;29;20039;-81
2022/04/11 11:08:09;;;;;;;2.28;1.25;;;21.30;45.70;;;;;;4943991;29;20040;-80
2022/04/11 11:10:50;;;;;;;2.33;1.35;;;21.40;45.70;;;;;;4944627;29;20317;-80
2022/04/11 11:13:35;;;;;;;3.40;1.65;;;21.50;45.80;;;;;;4942201;29;20047;-78
2022/04/11 11:16:09;;;;;;;3.00;1.30;;;21.60;45.70;;;;;;4949011;28;20501;-79
2022/04/11 11:18:52;;;;;;;1.63;1.15;;;21.70;45.90;;;;;;4952181;29;20031;-79
2022/04/11 11:21:19;;;;;;;3.45;1.25;;;21.80;45.80;;;;;;4944917;28;20266;-81
2022/04/11 11:24:04;;;;;;;2.50;1.52;;;21.90;45.90;;;;;;4950160;28;20028;-79
2022/04/11 11:26:53;;;;;;;2.35;1.38;;;22.00;45.70;;;;;;4940054;28;20042;-81
2022/04/11 11:29:29;;;;;;;1.42;0.95;;;22.10;45.70;;;;;;4923435;29;20059;-79
2022/04/11 11:32:03;;;;;;;3.35;1.70;;;22.20;46.00;;;;;;4927156;29;20015;-80
2022/04/11 11:34:36;;;;;;;3.85;1.67;;;22.30;45.80;;;;;;4930824;28;20121;-79
2022/04/11 11:37:06;;;;;;;2.35;1.15;;;22.50;45.90;;;;;;4923277;29;20083;-79
2022/04/11 11:39:37;;;;;;;2.58;1.30;;;22.60;46.00;;;;;;4922643;29;20095;-80
2022/04/11 11:42:06;;;;;;;1.63;1.05;;;22.70;46.00;;;;;;4925523;29;20032;-80
2022/04/11 11:44:40;;;;;;;2.45;1.00;;;22.90;46.20;;;;;;4925202;29;20056;-80
2022/04/11 11:47:06;;;;;;;2.38;1.15;;;23.00;46.00;;;;;;4926258;29;20031;-80
2022/04/11 11:49:41;;;;;;;1.52;0.90;;;23.10;46.00;;;;;;4924630;29;20098;-81
2022/04/11 11:52:25;;;;;;;2.95;1.17;;;23.20;46.00;;;;;;4923482;29;20032;-81
2022/04/11 11:54:53;;;;;;;2.85;1.00;;;23.20;45.90;;;;;;4916679;29;20031;-82
2022/04/11 11:57:21;;;;;;;1.45;0.98;;;23.20;46.10;;;;;;4926414;29;20071;-78
2022/04/11 11:59:59;;;;;;;2.53;1.02;;;23.20;46.00;;;;;;4923451;29;20035;-81
2022/04/11 12:05:29;;;;;;;3.00;1.15;;;23.10;45.70;;;;;;4922009;29;20039;-82
2022/04/11 12:08:13;;;;;;;3.42;1.10;;;23.00;45.50;;;;;;4924721;29;20066;-80
2022/04/11 12:10:46;;;;;;;2.78;1.70;;;22.90;45.40;;;;;;4926653;29;20034;-80
2022/04/11 12:13:23;;;;;;;3.03;1.20;;;22.90;45.60;;;;;;4921715;29;20487;-80
2022/04/11 12:15:50;;;;;;;2.03;0.98;;;22.90;45.60;;;;;;4925822;28;20044;-81
2022/04/11 12:18:15;;;;;;;1.98;0.90;;;22.80;45.50;;;;;;4924494;29;20036;-81
2022/04/11 12:20:43;;;;;;;3.90;1.00;;;22.80;45.50;;;;;;4925712;29;20061;-82
2022/04/11 12:23:18;;;;;;;3.47;1.17;;;22.80;45.50;;;;;;4915243;29;20227;-81
2022/04/11 12:25:50;;;;;;;2.65;1.25;;;23.00;45.60;;;;;;4924399;29;20055;-81
2022/04/11 12:28:26;;;;;;;;;;;23.00;45.50;;;;;;4931738;28;20043;-81
2022/04/11 12:31:11;;;;;;;1.80;0.98;;;23.10;45.70;;;;;;4912852;29;20452;-82
2022/04/11 12:33:40;;;;;;;2.83;0.90;;;23.20;45.70;;;;;;4929915;29;20428;-83
2022/04/11 12:36:12;;;;;;;3.13;1.05;;;23.20;45.70;;;;;;4927563;29;20028;-84
2022/04/11 12:39:13;;;;;;;2.20;1.60;;;23.20;45.60;;;;;;4937391;28;20047;-84
2022/04/11 12:41:47;;;;;;;2.15;1.05;;;23.20;45.40;;;;;;4930195;29;20039;-82
2022/04/11 12:44:14;;;;;;;2.25;1.05;;;23.10;45.50;;;;;;4930678;29;20035;-82
2022/04/11 12:46:46;;;;;;;2.95;1.02;;;23.00;45.40;;;;;;4930509;29;20036;-83
2022/04/11 12:49:17;;;;;;;1.67;0.85;;;23.00;45.40;;;;;;4924847;29;20042;-82
2022/04/11 12:51:56;;;;;;;2.13;0.95;;;23.10;45.50;;;;;;4930100;29;20039;-83
2022/04/11 12:54:22;;;;;;;4.05;1.13;;;23.10;45.80;;;;;;4921877;29;20028;-82
2022/04/11 12:56:51;;;;;;;1.55;0.93;;;23.00;45.30;;;;;;4944202;29;20566;-84
2022/04/11 12:59:29;;;;;;;2.95;0.75;;;23.00;45.30;;;;;;4934184;29;20039;-83
2022/04/11 13:02:05;;;;;;;1.10;0.90;;;22.90;45.20;;;;;;4932574;29;20044;-80
2022/04/11 13:04:33;;;;;;;2.15;1.23;;;22.70;45.10;;;;;;4929606;29;20032;-80
2022/04/11 13:06:59;;;;;;;2.75;0.80;;;22.60;45.10;;;;;;4929896;29;20034;-80